Time;durP1;ratioP1;P1;durP2;ratioP2;P2;SDS_P1;SDS_P2;PMS_P1;PMS_P2;Temp;Humidity;BMP_temperature;BMP_pressure;BME280_temperature;BME280_humidity;BME280_pressure;Samples;Min_cycle;Max_cycle;Signal;HPM_P1;HPM_P2
2021/12/23 00:02:22;;;;;;;27.50;18.58;;;;;;;;;;6208392;23;20020;-80
2021/12/23 00:04:48;;;;;;;26.92;18.92;;;;;;;;;;6208091;23;20086;-80
2021/12/23 00:07:14;;;;;;;31.52;19.45;;;;;;;;;;6208189;23;20020;-80
2021/12/23 00:10:00;;;;;;;27.08;19.20;;;;;;;;;;6208047;23;20362;-80
2021/12/23 00:12:27;;;;;;;26.67;19.50;;;;;;;;;;6208175;23;20028;-80
2021/12/23 00:14:55;;;;;;;30.15;21.00;;;;;;;;;;6208342;23;20008;-80
2021/12/23 00:17:27;;;;;;;27.45;19.20;;;;;;;;;;6208087;23;20074;-80
2021/12/23 00:23:24;;;;;;;29.80;20.25;;;;;;;;;;6208420;23;20017;-80
2021/12/23 00:25:31;;;;;;;28.77;21.17;;;;;;;;;;6208072;23;20021;-80
2021/12/23 00:27:57;;;;;;;28.15;19.35;;;;;;;;;;6208134;23;20106;-80
2021/12/23 00:30:24;;;;;;;28.83;20.25;;;;;;;;;;6207833;23;20354;-80
2021/12/23 00:32:50;;;;;;;30.35;21.02;;;;;;;;;;6207318;23;20096;-80
2021/12/23 00:35:17;;;;;;;28.80;20.35;;;;;;;;;;6208922;23;20051;-80
2021/12/23 00:37:46;;;;;;;24.73;19.02;;;;;;;;;;6207719;23;20469;-81
2021/12/23 00:40:13;;;;;;;29.38;18.58;;;;;;;;;;6208019;23;20017;-80
2021/12/23 00:42:40;;;;;;;28.52;19.40;;;;;;;;;;6207998;23;20062;-80
2021/12/23 00:45:07;;;;;;;29.30;20.35;;;;;;;;;;6208536;23;20016;-80
2021/12/23 00:47:33;;;;;;;28.13;19.60;;;;;;;;;;6207919;23;20027;-80
2021/12/23 00:49:59;;;;;;;31.02;21.63;;;;;;;;;;6207870;23;20017;-81
2021/12/23 00:52:34;;;;;;;29.73;19.75;;;;;;;;;;6207859;23;20016;-80
2021/12/23 00:55:00;;;;;;;;;;;;;;;;;;6208414;23;20021;-80
2021/12/23 00:57:28;;;;;;;30.58;20.13;;;;;;;;;;6208250;23;19912;-80
2021/12/23 00:59:55;;;;;;;25.48;18.77;;;;;;;;;;6207887;23;20024;-81
2021/12/23 01:02:28;;;;;;;29.70;20.13;;;;;;;;;;6207810;23;20100;-80
2021/12/23 01:04:55;;;;;;;29.58;21.40;;;;;;;;;;6207925;23;20171;-80
2021/12/23 01:07:21;;;;;;;34.38;22.02;;;;;;;;;;6209228;23;20012;-80
2021/12/23 01:09:47;;;;;;;30.40;21.73;;;;;;;;;;6209572;23;20016;-80
2021/12/23 01:12:16;;;;;;;29.33;20.90;;;;;;;;;;6210006;23;20008;-81
2021/12/23 01:14:55;;;;;;;29.27;21.08;;;;;;;;;;6209693;23;20062;-80
2021/12/23 01:19:53;;;;;;;29.83;22.35;;;;;;;;;;6209434;23;20023;-80
2021/12/23 01:22:20;;;;;;;33.75;23.50;;;;;;;;;;6209863;23;20013;-80
2021/12/23 01:24:47;;;;;;;30.92;21.58;;;;;;;;;;6209508;23;20021;-80
2021/12/23 01:27:13;;;;;;;31.63;21.95;;;;;;;;;;6209445;23;20013;-80
2021/12/23 01:29:39;;;;;;;31.48;21.67;;;;;;;;;;6209194;23;20513;-80
2021/12/23 01:32:30;;;;;;;30.15;21.65;;;;;;;;;;6209543;23;20461;-81
2021/12/23 01:34:56;;;;;;;29.23;21.08;;;;;;;;;;6209306;23;20342;-80
2021/12/23 01:37:23;;;;;;;30.23;20.50;;;;;;;;;;6209066;23;20050;-81
2021/12/23 01:39:49;;;;;;;32.58;21.73;;;;;;;;;;6209540;23;20734;-80
2021/12/23 01:42:15;;;;;;;30.35;21.38;;;;;;;;;;6209319;23;20446;-80
2021/12/23 01:44:41;;;;;;;31.50;22.45;;;;;;;;;;6209696;23;20023;-80
2021/12/23 01:47:07;;;;;;;31.27;21.92;;;;;;;;;;6209562;23;20016;-80
2021/12/23 01:49:34;;;;;;;34.47;22.88;;;;;;;;;;6209544;23;20447;-80
2021/12/23 01:52:00;;;;;;;33.85;22.25;;;;;;;;;;6209639;23;20282;-80
2021/12/23 01:54:26;;;;;;;31.42;23.23;;;;;;;;;;6209185;23;20016;-80
2021/12/23 01:57:05;;;;;;;30.30;23.08;;;;;;;;;;6209161;23;20015;-80
2021/12/23 01:59:34;;;;;;;32.42;21.83;;;;;;;;;;6209207;23;20367;-81
2021/12/23 02:02:01;;;;;;;30.35;21.85;;;;;;;;;;6209201;23;20047;-80
2021/12/23 02:04:27;;;;;;;32.10;22.58;;;;;;;;;;6209425;23;20593;-80
2021/12/23 02:06:53;;;;;;;34.58;24.25;;;;;;;;;;6184074;23;20016;-80
2021/12/23 02:09:19;;;;;;;31.20;21.70;;;;;;;;;;6183458;23;20450;-80
2021/12/23 02:11:46;;;;;;;32.03;22.75;;;;;;;;;;6209259;23;20019;-80
2021/12/23 02:14:12;;;;;;;32.45;22.23;;;;;;;;;;6209030;23;20008;-80
2021/12/23 02:16:38;;;;;;;35.03;23.08;;;;;;;;;;6208612;23;20212;-81
2021/12/23 02:19:04;;;;;;;32.72;22.85;;;;;;;;;;6209084;23;20016;-80
2021/12/23 02:21:31;;;;;;;31.55;21.58;;;;;;;;;;6208908;23;20206;-81
2021/12/23 02:23:57;;;;;;;28.77;20.52;;;;;;;;;;6208588;23;20016;-80
2021/12/23 02:26:23;;;;;;;30.30;21.33;;;;;;;;;;6208941;23;20012;-81
2021/12/23 02:28:49;;;;;;;30.90;21.77;;;;;;;;;;6208968;23;20013;-80
2021/12/23 02:31:16;;;;;;;30.00;21.20;;;;;;;;;;6209128;23;20019;-80
2021/12/23 02:33:42;;;;;;;32.53;22.13;;;;;;;;;;6208262;23;20017;-80
2021/12/23 02:36:11;;;;;;;31.92;22.77;;;;;;;;;;6209091;23;20047;-80
2021/12/23 02:38:37;;;;;;;31.30;21.83;;;;;;;;;;6208660;23;20055;-80
2021/12/23 02:41:04;;;;;;;30.58;21.38;;;;;;;;;;6208776;23;20340;-80
2021/12/23 02:43:30;;;;;;;28.63;21.00;;;;;;;;;;6208756;23;20103;-80
2021/12/23 02:45:57;;;;;;;31.92;22.02;;;;;;;;;;6209228;23;20013;-80
2021/12/23 02:48:30;;;;;;;32.63;22.05;;;;;;;;;;6183634;23;20421;-80
2021/12/23 02:50:57;;;;;;;35.78;22.13;;;;;;;;;;6208782;23;20013;-80
2021/12/23 02:53:23;;;;;;;31.98;21.95;;;;;;;;;;6183749;23;20074;-80
2021/12/23 02:55:50;;;;;;;32.85;22.67;;;;;;;;;;6208737;23;20016;-80
2021/12/23 02:58:16;;;;;;;30.90;21.20;;;;;;;;;;6208571;23;20013;-80
2021/12/23 03:00:55;;;;;;;31.15;21.92;;;;;;;;;;6208796;23;20013;-80
2021/12/23 03:03:22;;;;;;;29.70;21.90;;;;;;;;;;6208192;23;20063;-80
2021/12/23 03:05:49;;;;;;;31.35;21.15;;;;;;;;;;6208594;23;20023;-80
2021/12/23 03:08:15;;;;;;;31.90;21.13;;;;;;;;;;6208860;23;20013;-80
2021/12/23 03:10:41;;;;;;;29.42;21.13;;;;;;;;;;6208385;23;20295;-80
2021/12/23 03:13:08;;;;;;;29.25;21.83;;;;;;;;;;6208395;23;20084;-80
2021/12/23 03:15:34;;;;;;;33.38;22.45;;;;;;;;;;6208520;23;20012;-80
2021/12/23 03:18:00;;;;;;;31.60;21.17;;;;;;;;;;6183798;23;20442;-80
2021/12/23 03:20:26;;;;;;;32.08;21.98;;;;;;;;;;6208555;23;20021;-80
2021/12/23 03:22:52;;;;;;;30.92;21.63;;;;;;;;;;6208815;23;20023;-80
2021/12/23 03:25:18;;;;;;;31.33;22.45;;;;;;;;;;6208336;23;20047;-80
2021/12/23 03:27:44;;;;;;;32.47;22.13;;;;;;;;;;6208846;23;20024;-80
2021/12/23 03:30:11;;;;;;;34.08;22.83;;;;;;;;;;6207974;23;20409;-80
2021/12/23 03:32:37;;;;;;;33.47;22.02;;;;;;;;;;6208269;23;20020;-80
2021/12/23 03:35:03;;;;;;;34.40;21.67;;;;;;;;;;6208267;23;20438;-80
2021/12/23 03:37:29;;;;;;;31.70;22.35;;;;;;;;;;6208134;23;20501;-80
2021/12/23 03:39:56;;;;;;;31.95;20.75;;;;;;;;;;6208570;23;20056;-80
2021/12/23 03:42:22;;;;;;;32.70;21.67;;;;;;;;;;6208191;23;20013;-81
2021/12/23 03:44:48;;;;;;;30.27;21.23;;;;;;;;;;6208370;23;20020;-80
2021/12/23 03:47:14;;;;;;;34.47;22.80;;;;;;;;;;6208061;23;20013;-80
2021/12/23 03:49:41;;;;;;;31.38;21.17;;;;;;;;;;6208117;23;20044;-80
2021/12/23 03:52:07;;;;;;;33.47;21.30;;;;;;;;;;6208249;23;20468;-80
2021/12/23 03:54:33;;;;;;;28.10;19.83;;;;;;;;;;6208221;23;20143;-80
2021/12/23 03:56:59;;;;;;;28.48;20.13;;;;;;;;;;6208312;23;20346;-80
2021/12/23 03:59:26;;;;;;;31.42;19.83;;;;;;;;;;6208088;23;20071;-80
2021/12/23 04:01:52;;;;;;;31.92;21.52;;;;;;;;;;6208383;23;20013;-80
2021/12/23 04:04:18;;;;;;;33.65;20.63;;;;;;;;;;6208036;23;20327;-80
2021/12/23 04:06:45;;;;;;;30.13;20.77;;;;;;;;;;6207875;23;20043;-79
2021/12/23 04:09:11;;;;;;;32.67;21.23;;;;;;;;;;6182991;23;20062;-80
2021/12/23 04:11:37;;;;;;;30.92;21.50;;;;;;;;;;6208065;23;20091;-80
2021/12/23 04:14:04;;;;;;;30.50;20.65;;;;;;;;;;6208709;23;20016;-80
2021/12/23 04:16:30;;;;;;;30.45;20.42;;;;;;;;;;6208357;23;20087;-80
2021/12/23 04:18:56;;;;;;;33.00;22.25;;;;;;;;;;6208119;23;20013;-80
2021/12/23 04:21:23;;;;;;;32.00;21.75;;;;;;;;;;6208053;23;20008;-80
2021/12/23 04:23:49;;;;;;;32.03;20.77;;;;;;;;;;6208241;23;20382;-79
2021/12/23 04:26:15;;;;;;;28.65;20.58;;;;;;;;;;6208418;23;20012;-79
2021/12/23 04:28:46;;;;;;;30.33;21.20;;;;;;;;;;6207981;23;20013;-79
2021/12/23 04:31:16;;;;;;;29.27;20.77;;;;;;;;;;6207919;23;20446;-79
2021/12/23 04:33:43;;;;;;;30.23;21.55;;;;;;;;;;6207318;23;20015;-79
2021/12/23 04:36:09;;;;;;;32.45;21.77;;;;;;;;;;6207980;23;20502;-79
2021/12/23 04:38:37;;;;;;;32.92;21.75;;;;;;;;;;6208000;23;20082;-79
2021/12/23 04:41:04;;;;;;;31.92;21.35;;;;;;;;;;6208672;23;20035;-79
2021/12/23 04:43:30;;;;;;;34.45;21.17;;;;;;;;;;6209870;23;20021;-79
2021/12/23 04:45:56;;;;;;;30.13;20.90;;;;;;;;;;6210047;23;20017;-79
2021/12/23 04:48:22;;;;;;;30.38;20.33;;;;;;;;;;6209868;23;20017;-79
2021/12/23 04:50:48;;;;;;;32.92;21.05;;;;;;;;;;6209636;23;20017;-79
2021/12/23 04:53:14;;;;;;;31.45;21.00;;;;;;;;;;6209863;23;20044;-79
2021/12/23 04:55:47;;;;;;;31.27;21.25;;;;;;;;;;6210030;23;20023;-79
2021/12/23 04:58:14;;;;;;;32.38;21.52;;;;;;;;;;6209807;23;20443;-80
2021/12/23 05:00:42;;;;;;;30.30;21.20;;;;;;;;;;6209811;23;20016;-79
2021/12/23 05:03:08;;;;;;;29.55;21.00;;;;;;;;;;6209765;23;20032;-79
2021/12/23 05:05:35;;;;;;;31.02;21.27;;;;;;;;;;6209765;23;20074;-79
2021/12/23 05:08:01;;;;;;;31.52;20.55;;;;;;;;;;6209794;23;20089;-80
2021/12/23 05:10:27;;;;;;;30.90;20.70;;;;;;;;;;6210083;23;20027;-79
2021/12/23 05:12:54;;;;;;;30.60;19.70;;;;;;;;;;6209841;23;20604;-79
2021/12/23 05:15:20;;;;;;;31.98;22.45;;;;;;;;;;6184506;23;20451;-79
2021/12/23 05:17:47;;;;;;;30.80;21.23;;;;;;;;;;6210403;23;20455;-80
2021/12/23 05:20:15;;;;;;;31.20;20.23;;;;;;;;;;6209835;23;20027;-79
2021/12/23 05:22:41;;;;;;;31.42;20.42;;;;;;;;;;6209886;23;20095;-79
2021/12/23 05:25:08;;;;;;;30.15;20.30;;;;;;;;;;6209787;23;20024;-79
2021/12/23 05:27:34;;;;;;;34.22;20.17;;;;;;;;;;6209948;23;20016;-79
2021/12/23 05:30:03;;;;;;;31.75;20.30;;;;;;;;;;6209388;23;20013;-79
2021/12/23 05:32:30;;;;;;;29.98;20.80;;;;;;;;;;6208474;23;20370;-79
2021/12/23 05:34:56;;;;;;;30.98;21.48;;;;;;;;;;6208866;23;20012;-79
2021/12/23 05:37:22;;;;;;;33.10;22.02;;;;;;;;;;6208873;23;20027;-79
2021/12/23 05:39:48;;;;;;;28.73;20.30;;;;;;;;;;6209384;23;20111;-80
2021/12/23 05:42:14;;;;;;;32.20;22.00;;;;;;;;;;6209417;23;20075;-80
2021/12/23 05:44:40;;;;;;;30.05;20.17;;;;;;;;;;6209616;23;20031;-80
2021/12/23 05:47:07;;;;;;;33.15;21.13;;;;;;;;;;6209411;23;20260;-79
2021/12/23 05:49:33;;;;;;;30.92;20.95;;;;;;;;;;6209366;23;20039;-80
2021/12/23 05:51:59;;;;;;;31.85;21.17;;;;;;;;;;6209189;23;20017;-81
2021/12/23 05:54:25;;;;;;;32.42;21.05;;;;;;;;;;6209302;23;20087;-80
2021/12/23 05:56:51;;;;;;;31.23;21.35;;;;;;;;;;6209372;23;20104;-80
2021/12/23 05:59:18;;;;;;;30.90;21.42;;;;;;;;;;6209251;23;20012;-80
2021/12/23 06:01:44;;;;;;;30.05;20.42;;;;;;;;;;6209212;23;20255;-80
2021/12/23 06:04:10;;;;;;;32.22;21.52;;;;;;;;;;6209257;23;20183;-80
2021/12/23 06:06:36;;;;;;;30.65;20.40;;;;;;;;;;6184576;23;20016;-80
2021/12/23 06:09:02;;;;;;;33.78;21.50;;;;;;;;;;6208271;23;20350;-80
2021/12/23 06:11:29;;;;;;;32.08;21.75;;;;;;;;;;6209179;23;20083;-80
2021/12/23 06:13:55;;;;;;;32.40;21.63;;;;;;;;;;6209145;23;20009;-80
2021/12/23 06:16:21;;;;;;;33.22;21.77;;;;;;;;;;6209424;23;20017;-80
2021/12/23 06:18:48;;;;;;;31.83;21.15;;;;;;;;;;6209192;23;20497;-80
2021/12/23 06:21:14;;;;;;;32.13;21.73;;;;;;;;;;6208954;23;20078;-80
2021/12/23 06:23:40;;;;;;;30.00;21.05;;;;;;;;;;6208941;23;20017;-80
2021/12/23 06:26:07;;;;;;;36.67;23.65;;;;;;;;;;6209112;23;20020;-80
2021/12/23 06:28:33;;;;;;;33.60;22.00;;;;;;;;;;6208989;23;20012;-80
2021/12/23 06:30:59;;;;;;;33.72;22.90;;;;;;;;;;6208881;23;20091;-80
2021/12/23 06:33:25;;;;;;;29.73;21.30;;;;;;;;;;6208898;23;20012;-80
2021/12/23 06:35:52;;;;;;;32.33;20.80;;;;;;;;;;6208911;23;20009;-80
2021/12/23 06:38:18;;;;;;;31.30;21.30;;;;;;;;;;6183759;23;20016;-80
2021/12/23 06:40:44;;;;;;;33.28;22.40;;;;;;;;;;6208878;23;20020;-80
2021/12/23 06:43:10;;;;;;;32.92;22.15;;;;;;;;;;6208629;23;20017;-80
2021/12/23 06:45:37;;;;;;;33.03;21.90;;;;;;;;;;6208702;23;20028;-80
2021/12/23 06:48:03;;;;;;;31.08;21.90;;;;;;;;;;6208725;23;20027;-80
2021/12/23 06:50:30;;;;;;;35.50;24.05;;;;;;;;;;6208731;23;20013;-80
2021/12/23 06:52:58;;;;;;;33.85;22.05;;;;;;;;;;6208753;23;20009;-80
2021/12/23 06:55:24;;;;;;;30.23;21.33;;;;;;;;;;6183721;23;20017;-80
2021/12/23 06:57:55;;;;;;;32.85;22.83;;;;;;;;;;6208613;23;20019;-80
2021/12/23 07:00:22;;;;;;;33.67;21.83;;;;;;;;;;6183466;23;20416;-80
2021/12/23 07:02:48;;;;;;;33.97;22.80;;;;;;;;;;6208308;23;20012;-80
2021/12/23 07:05:15;;;;;;;31.73;21.83;;;;;;;;;;6207783;23;20268;-80
2021/12/23 07:07:54;;;;;;;34.03;22.67;;;;;;;;;;6183247;23;20159;-80
2021/12/23 07:10:22;;;;;;;33.53;23.02;;;;;;;;;;6183376;23;20051;-80
2021/12/23 07:12:48;;;;;;;37.05;23.33;;;;;;;;;;6208150;23;20013;-80
2021/12/23 07:15:14;;;;;;;35.15;22.20;;;;;;;;;;6208592;23;20092;-80
2021/12/23 07:17:41;;;;;;;32.22;21.15;;;;;;;;;;6208341;23;20013;-80
2021/12/23 07:20:07;;;;;;;31.98;22.48;;;;;;;;;;6208281;23;20017;-78
2021/12/23 07:22:33;;;;;;;36.75;23.10;;;;;;;;;;6207739;23;20132;-80
2021/12/23 07:24:59;;;;;;;36.53;22.92;;;;;;;;;;6205160;23;20052;-79
2021/12/23 07:27:26;;;;;;;34.60;23.67;;;;;;;;;;6207284;23;20012;-79
2021/12/23 07:29:52;;;;;;;35.83;22.83;;;;;;;;;;6206735;23;20219;-80
2021/12/23 07:32:18;;;;;;;37.33;24.70;;;;;;;;;;6182303;23;20040;-80
2021/12/23 07:34:44;;;;;;;36.40;22.75;;;;;;;;;;6206163;23;20024;-80
2021/12/23 07:37:11;;;;;;;36.42;23.80;;;;;;;;;;6207785;23;20342;-80
2021/12/23 07:39:38;;;;;;;32.70;21.73;;;;;;;;;;6208370;23;20052;-80
2021/12/23 07:42:06;;;;;;;35.83;23.83;;;;;;;;;;6207503;23;20357;-80
2021/12/23 07:44:32;;;;;;;33.80;22.70;;;;;;;;;;6206892;23;20044;-79
2021/12/23 07:46:59;;;;;;;34.60;23.90;;;;;;;;;;6207728;23;20095;-80
2021/12/23 07:49:27;;;;;;;36.22;23.52;;;;;;;;;;6207696;23;20059;-81
2021/12/23 07:51:54;;;;;;;37.05;23.98;;;;;;;;;;6207661;23;20292;-80
2021/12/23 07:54:20;;;;;;;37.08;25.25;;;;;;;;;;6207726;23;20067;-80
2021/12/23 07:56:47;;;;;;;40.47;24.35;;;;;;;;;;6207446;23;20012;-80
2021/12/23 07:59:13;;;;;;;39.08;25.60;;;;;;;;;;6207823;23;20027;-80
2021/12/23 08:01:40;;;;;;;39.00;25.02;;;;;;;;;;6207766;23;20455;-79
2021/12/23 08:04:06;;;;;;;37.42;25.63;;;;;;;;;;6207916;23;20084;-80
2021/12/23 08:06:32;;;;;;;36.60;23.92;;;;;;;;;;6208076;23;20016;-80
2021/12/23 08:08:58;;;;;;;37.85;25.02;;;;;;;;;;6207989;23;20048;-81
2021/12/23 08:11:24;;;;;;;35.67;24.45;;;;;;;;;;6207063;23;20075;-80
2021/12/23 08:13:50;;;;;;;37.28;23.25;;;;;;;;;;6182771;23;20111;-80
2021/12/23 08:16:17;;;;;;;36.00;25.67;;;;;;;;;;6207957;23;20048;-80
2021/12/23 08:18:43;;;;;;;38.85;25.42;;;;;;;;;;6208040;23;20020;-79
2021/12/23 08:21:09;;;;;;;39.10;25.20;;;;;;;;;;6207977;23;20378;-80
2021/12/23 08:23:36;;;;;;;36.97;25.08;;;;;;;;;;6182782;23;20023;-80
2021/12/23 08:26:05;;;;;;;37.15;25.60;;;;;;;;;;6207588;23;20386;-80
2021/12/23 08:28:32;;;;;;;38.42;25.38;;;;;;;;;;6207310;23;20017;-80
2021/12/23 08:31:00;;;;;;;36.33;24.55;;;;;;;;;;6182305;23;20505;-80
2021/12/23 08:33:26;;;;;;;43.22;25.20;;;;;;;;;;6208355;23;20009;-80
2021/12/23 08:35:52;;;;;;;36.72;24.00;;;;;;;;;;6208263;23;20111;-81
2021/12/23 08:38:19;;;;;;;38.83;25.55;;;;;;;;;;6207619;23;20021;-80
2021/12/23 08:40:46;;;;;;;39.85;25.83;;;;;;;;;;6208111;23;20078;-80
2021/12/23 08:43:13;;;;;;;41.03;26.52;;;;;;;;;;6208088;23;20096;-80
2021/12/23 08:45:40;;;;;;;38.08;25.13;;;;;;;;;;6208463;23;20016;-80
2021/12/23 08:48:06;;;;;;;40.17;26.05;;;;;;;;;;6207969;23;20513;-80
2021/12/23 08:50:32;;;;;;;40.45;26.02;;;;;;;;;;6207742;23;20023;-80
2021/12/23 08:52:59;;;;;;;41.90;26.30;;;;;;;;;;6182892;23;20058;-80
2021/12/23 08:55:27;;;;;;;37.05;26.52;;;;;;;;;;6207368;23;20009;-80
2021/12/23 08:57:54;;;;;;;35.40;25.23;;;;;;;;;;6207552;23;20017;-80
2021/12/23 09:00:21;;;;;;;40.58;26.55;;;;;;;;;;6207487;23;20020;-80
2021/12/23 09:02:48;;;;;;;37.05;24.58;;;;;;;;;;6207335;23;20020;-80
2021/12/23 09:05:16;;;;;;;41.10;26.83;;;;;;;;;;6208075;23;20016;-81
2021/12/23 09:07:42;;;;;;;39.78;26.58;;;;;;;;;;6208609;23;20023;-81
2021/12/23 09:10:09;;;;;;;36.97;24.25;;;;;;;;;;6207555;23;20027;-81
2021/12/23 09:12:35;;;;;;;45.50;28.15;;;;;;;;;;6207534;23;20013;-80
2021/12/23 09:15:02;;;;;;;41.22;26.52;;;;;;;;;;6181429;23;20012;-80
2021/12/23 09:17:29;;;;;;;46.45;27.80;;;;;;;;;;6207424;23;20012;-81
2021/12/23 09:19:55;;;;;;;42.20;27.67;;;;;;;;;;6207113;23;20593;-81
2021/12/23 09:22:21;;;;;;;38.80;26.95;;;;;;;;;;6206756;23;20013;-80
2021/12/23 09:24:48;;;;;;;43.97;28.27;;;;;;;;;;6207093;23;20102;-80
2021/12/23 09:34:56;;;;;;;43.47;28.42;;;;;;;;;;6209410;23;20012;-80
2021/12/23 09:37:23;;;;;;;45.75;30.05;;;;;;;;;;6208209;23;20565;-81
2021/12/23 09:39:54;;;;;;;48.08;30.23;;;;;;;;;;6209579;23;20020;-80
2021/12/23 09:42:23;;;;;;;48.45;31.25;;;;;;;;;;6209568;23;20405;-81
2021/12/23 09:44:49;;;;;;;48.35;30.45;;;;;;;;;;6209361;23;20027;-81
2021/12/23 09:47:16;;;;;;;47.60;30.08;;;;;;;;;;6184411;23;20456;-81
2021/12/23 09:49:43;;;;;;;50.55;32.47;;;;;;;;;;6209255;23;20393;-81
2021/12/23 09:52:09;;;;;;;50.35;33.25;;;;;;;;;;6209433;23;20009;-81
2021/12/23 09:54:38;;;;;;;54.85;34.13;;;;;;;;;;6184292;23;20363;-81
2021/12/23 09:57:04;;;;;;;52.88;34.53;;;;;;;;;;6209379;23;20020;-81
2021/12/23 09:59:31;;;;;;;56.03;34.53;;;;;;;;;;6209425;23;20021;-81
2021/12/23 10:01:57;;;;;;;60.63;36.20;;;;;;;;;;6209252;23;20013;-81
2021/12/23 10:04:23;;;;;;;62.55;36.88;;;;;;;;;;6209116;23;20027;-80
2021/12/23 10:06:51;;;;;;;61.20;36.13;;;;;;;;;;6209174;23;20439;-80
2021/12/23 10:09:36;;;;;;;61.15;37.30;;;;;;;;;;6209265;23;20320;-80
2021/12/23 10:31:33;;;;;;;69.10;40.08;;;;;;;;;;6208956;23;20016;-81
2021/12/23 10:39:40;;;;;;;67.47;40.25;;;;;;;;;;6208298;23;20028;-82
2021/12/23 10:42:17;;;;;;;71.78;41.80;;;;;;;;;;6209240;23;20530;-82
2021/12/23 10:44:53;;;;;;;71.75;39.40;;;;;;;;;;6209224;23;20055;-82
2021/12/23 10:47:30;;;;;;;71.85;42.15;;;;;;;;;;6208961;23;20091;-82
2021/12/23 10:50:00;;;;;;;72.32;42.08;;;;;;;;;;6183830;23;20016;-82
2021/12/23 10:52:30;;;;;;;71.35;41.75;;;;;;;;;;6209263;23;20386;-82
2021/12/23 11:00:18;;;;;;;77.30;41.33;;;;;;;;;;6208645;23;20406;-81
2021/12/23 11:02:59;;;;;;;75.10;41.75;;;;;;;;;;6208681;23;20368;-82
2021/12/23 11:05:30;;;;;;;75.07;43.33;;;;;;;;;;6209385;23;20454;-80
2021/12/23 11:08:08;;;;;;;75.35;41.05;;;;;;;;;;6209032;23;20013;-82
2021/12/23 11:41:30;;;;;;;83.10;46.50;;;;;;;;;;6208674;23;20372;-80
2021/12/23 11:43:58;;;;;;;87.03;45.72;;;;;;;;;;6208522;23;20020;-80
2021/12/23 11:46:41;;;;;;;85.07;45.88;;;;;;;;;;6182679;23;20013;-80
2021/12/23 11:49:09;;;;;;;82.93;45.25;;;;;;;;;;6208169;23;20013;-79
2021/12/23 11:54:09;;;;;;;83.20;44.15;;;;;;;;;;6208304;23;20020;-80
2021/12/23 11:56:37;;;;;;;80.72;45.38;;;;;;;;;;6182732;23;20126;-80
2021/12/23 11:59:03;;;;;;;85.97;46.13;;;;;;;;;;6208081;23;20016;-81
2021/12/23 12:01:32;;;;;;;86.00;46.85;;;;;;;;;;6208025;23;20059;-81
2021/12/23 12:04:00;;;;;;;88.25;47.47;;;;;;;;;;6183107;23;20317;-81
2021/12/23 12:06:46;;;;;;;88.15;46.13;;;;;;;;;;6207800;23;20008;-81
2021/12/23 12:09:18;;;;;;;87.00;46.17;;;;;;;;;;6207967;23;20510;-82
2021/12/23 12:11:48;;;;;;;88.00;48.13;;;;;;;;;;6208128;23;20016;-82
2021/12/23 12:14:34;;;;;;;94.45;48.78;;;;;;;;;;6207609;23;20013;-83
2021/12/23 12:17:20;;;;;;;92.82;48.13;;;;;;;;;;6208184;23;20013;-83
2021/12/23 12:20:06;;;;;;;95.70;48.63;;;;;;;;;;6207973;23;20016;-83
2021/12/23 12:22:53;;;;;;;95.38;48.83;;;;;;;;;;6208074;23;20013;-82
2021/12/23 12:25:26;;;;;;;93.30;47.33;;;;;;;;;;6207053;23;20023;-82
2021/12/23 12:28:10;;;;;;;93.32;49.33;;;;;;;;;;6208015;23;20422;-83
2021/12/23 12:30:36;;;;;;;95.10;48.15;;;;;;;;;;6207984;23;20024;-82
2021/12/23 12:33:04;;;;;;;84.35;47.53;;;;;;;;;;6207899;23;20019;-82
2021/12/23 12:35:30;;;;;;;89.03;47.30;;;;;;;;;;6182325;23;20039;-82
2021/12/23 12:38:10;;;;;;;93.50;49.25;;;;;;;;;;6207816;23;20021;-82
2021/12/23 12:41:12;;;;;;;93.60;48.45;;;;;;;;;;6207891;23;20013;-82
2021/12/23 12:43:43;;;;;;;99.18;48.83;;;;;;;;;;6121874;23;20017;-82
2021/12/23 12:46:10;;;;;;;90.32;47.85;;;;;;;;;;6197254;23;20075;-82
2021/12/23 12:48:55;;;;;;;93.60;47.88;;;;;;;;;;6208657;23;20588;-82
2021/12/23 12:51:23;;;;;;;92.65;46.97;;;;;;;;;;6182817;23;20098;-83
2021/12/23 12:53:55;;;;;;;95.00;47.97;;;;;;;;;;6208109;23;20349;-83
2021/12/23 12:56:22;;;;;;;96.82;48.42;;;;;;;;;;6207368;23;20009;-83
2021/12/23 12:58:52;;;;;;;90.55;45.30;;;;;;;;;;6207950;23;20013;-85
2021/12/23 13:01:30;;;;;;;96.88;46.53;;;;;;;;;;6208128;23;20020;-84
2021/12/23 13:03:57;;;;;;;91.50;47.38;;;;;;;;;;6210539;23;20022;-84
2021/12/23 13:06:27;;;;;;;91.40;47.83;;;;;;;;;;6209382;23;20455;-84
2021/12/23 13:09:02;;;;;;;93.53;46.85;;;;;;;;;;6210148;23;20095;-85
2021/12/23 13:11:29;;;;;;;87.32;46.67;;;;;;;;;;6209912;23;20079;-83
2021/12/23 13:14:02;;;;;;;89.15;45.42;;;;;;;;;;6209807;23;20009;-84
2021/12/23 13:16:28;;;;;;;90.43;47.53;;;;;;;;;;6209412;23;20009;-84
2021/12/23 13:19:14;;;;;;;97.55;47.40;;;;;;;;;;6209727;23;20012;-84
2021/12/23 13:21:44;;;;;;;89.05;47.83;;;;;;;;;;6209653;23;20095;-84
2021/12/23 13:24:11;;;;;;;101.10;47.83;;;;;;;;;;6209725;23;20397;-84
2021/12/23 13:26:37;;;;;;;92.18;45.83;;;;;;;;;;6209147;23;20039;-84
2021/12/23 13:29:06;;;;;;;89.82;46.90;;;;;;;;;;6209604;23;20062;-84
2021/12/23 13:31:36;;;;;;;85.97;45.28;;;;;;;;;;6209812;23;20032;-84
2021/12/23 13:34:04;;;;;;;96.72;47.47;;;;;;;;;;6184526;23;20009;-83
2021/12/23 13:36:34;;;;;;;105.88;49.65;;;;;;;;;;6209033;23;20362;-84
2021/12/23 13:39:00;;;;;;;93.97;47.25;;;;;;;;;;6209516;23;20048;-84
2021/12/23 13:41:36;;;;;;;86.32;45.47;;;;;;;;;;6209581;23;20013;-84
2021/12/23 13:44:22;;;;;;;89.20;44.13;;;;;;;;;;6209523;23;20016;-84
2021/12/23 13:47:04;;;;;;;92.95;48.10;;;;;;;;;;6209260;23;20086;-85
2021/12/23 13:49:31;;;;;;;98.45;49.20;;;;;;;;;;6209269;23;20022;-85
2021/12/23 13:51:57;;;;;;;100.68;48.08;;;;;;;;;;6209623;23;20013;-85
2021/12/23 13:54:23;;;;;;;100.15;49.05;;;;;;;;;;6209243;23;20536;-85
2021/12/23 13:56:51;;;;;;;95.38;47.58;;;;;;;;;;6209513;23;20096;-87
2021/12/23 13:59:28;;;;;;;93.63;47.75;;;;;;;;;;6209397;23;20019;-86
2021/12/23 14:01:54;;;;;;;91.63;47.58;;;;;;;;;;6209300;23;20013;-86
2021/12/23 14:04:29;;;;;;;103.47;51.08;;;;;;;;;;6209169;23;20009;-86
2021/12/23 14:06:55;;;;;;;103.50;47.88;;;;;;;;;;6209259;23;20009;-84
2021/12/23 14:09:35;;;;;;;91.90;49.03;;;;;;;;;;6209112;23;20529;-85
2021/12/23 14:12:02;;;;;;;95.93;49.03;;;;;;;;;;6184213;23;20065;-85
2021/12/23 14:14:28;;;;;;;92.80;48.47;;;;;;;;;;6208531;23;20013;-84
2021/12/23 14:17:13;;;;;;;100.78;49.75;;;;;;;;;;6209555;23;20044;-85
2021/12/23 14:19:58;;;;;;;;;;;;;;;;;;6209589;23;20023;-84
2021/12/23 14:25:09;;;;;;;96.78;48.15;;;;;;;;;;6208477;23;20024;-83
2021/12/23 14:27:35;;;;;;;107.30;51.47;;;;;;;;;;6209085;23;20442;-83
2021/12/23 14:30:03;;;;;;;102.43;50.55;;;;;;;;;;6208761;23;20096;-84
2021/12/23 14:32:29;;;;;;;105.30;50.08;;;;;;;;;;6209043;23;20024;-83
2021/12/23 14:34:56;;;;;;;97.03;50.17;;;;;;;;;;6208433;23;20084;-83
2021/12/23 14:37:22;;;;;;;110.40;53.17;;;;;;;;;;6183568;23;20023;-83
2021/12/23 14:39:48;;;;;;;106.68;53.95;;;;;;;;;;6208923;23;20406;-83
2021/12/23 14:42:16;;;;;;;100.00;49.78;;;;;;;;;;6208762;23;20334;-84
2021/12/23 14:44:43;;;;;;;104.05;51.80;;;;;;;;;;6209402;23;20071;-84
2021/12/23 14:49:58;;;;;;;104.45;51.83;;;;;;;;;;6208683;23;20103;-85
2021/12/23 14:52:24;;;;;;;116.80;53.72;;;;;;;;;;6209398;23;20401;-85
2021/12/23 14:54:55;;;;;;;106.22;50.13;;;;;;;;;;6183406;23;20016;-84
2021/12/23 14:57:44;;;;;;;108.68;53.13;;;;;;;;;;6208793;23;20008;-84
2021/12/23 15:00:13;;;;;;;117.00;52.67;;;;;;;;;;6183367;23;20566;-87
2021/12/23 15:02:40;;;;;;;116.63;53.42;;;;;;;;;;6208638;23;20062;-84
2021/12/23 15:05:29;;;;;;;114.50;53.60;;;;;;;;;;6208424;23;20021;-83
2021/12/23 15:08:27;;;;;;;115.85;54.97;;;;;;;;;;6197598;23;20016;-84
2021/12/23 15:10:58;;;;;;;105.57;51.67;;;;;;;;;;6191270;23;20347;-84
2021/12/23 15:13:25;;;;;;;119.45;52.53;;;;;;;;;;6208690;23;20338;-84
2021/12/23 15:16:10;;;;;;;104.07;50.88;;;;;;;;;;6208127;23;20017;-84
2021/12/23 15:18:54;;;;;;;121.88;54.17;;;;;;;;;;6208736;23;20019;-84
2021/12/23 15:21:30;;;;;;;121.57;54.33;;;;;;;;;;6184127;23;20103;-84
2021/12/23 15:23:56;;;;;;;105.50;52.97;;;;;;;;;;6208729;23;20048;-84
2021/12/23 15:26:28;;;;;;;114.93;52.72;;;;;;;;;;6207653;23;20023;-84
2021/12/23 15:29:03;;;;;;;108.55;50.65;;;;;;;;;;6208576;23;20016;-84
2021/12/23 15:31:29;;;;;;;104.88;50.60;;;;;;;;;;6208286;23;20017;-86
2021/12/23 15:33:55;;;;;;;128.88;55.20;;;;;;;;;;6208445;23;20087;-88
2021/12/23 15:36:21;;;;;;;119.18;56.00;;;;;;;;;;6208021;23;20362;-87
2021/12/23 15:38:47;;;;;;;117.47;56.00;;;;;;;;;;6208250;23;20023;-87
2021/12/23 15:41:14;;;;;;;123.35;56.13;;;;;;;;;;6208371;23;20024;-87
2021/12/23 15:43:40;;;;;;;109.85;50.70;;;;;;;;;;6208455;23;20048;-88
2021/12/23 15:46:06;;;;;;;124.22;54.22;;;;;;;;;;6207893;23;20584;-89
2021/12/23 15:48:34;;;;;;;132.18;52.75;;;;;;;;;;6208188;23;20016;-87